SVA1670 OEAB-OERK
Flight info
| Callsign | SVA1670 |
|---|---|
| Flight time | N/A |
| Altitude | 35000 |
| Route | DUMSI H75 IRBAB Q313 UMRAN H76 MOBAG |
| Aircraft | A320/M-SDE3FGHIRWY/LB1 |
Departure
| Time | N/A |
|---|---|
| Airport | Abha International Airport (OEAB) |
Arrival
| Time | 2026-04-30 18:01 |
|---|---|
| Airport | King Khalid International Airport (OERK) |
| Time | Latitude | Longitude | Altitude | Speed | Heading |
|---|---|---|---|---|---|
| 2026-04-30 17:39 | 25.04689 | 46.20137 | 6786 ft | 294 kts | 9° |
| 2026-04-30 17:41 | 25.20385 | 46.22117 | 5986 ft | 248 kts | 10° |
| 2026-04-30 17:42 | 25.23622 | 46.22520 | 5980 ft | 221 kts | 11° |
| 2026-04-30 17:42 | 25.28097 | 46.23091 | 5981 ft | 215 kts | 11° |
| 2026-04-30 17:43 | 25.30929 | 46.23447 | 5985 ft | 188 kts | 12° |
| 2026-04-30 17:44 | 25.34523 | 46.23906 | 5996 ft | 187 kts | 12° |
| 2026-04-30 17:44 | 25.38478 | 46.24482 | 5980 ft | 188 kts | 20° |
| 2026-04-30 17:46 | 25.43099 | 46.28836 | 5981 ft | 177 kts | 65° |
| 2026-04-30 17:47 | 25.45295 | 46.33634 | 5990 ft | 171 kts | 86° |
| 2026-04-30 17:48 | 25.43388 | 46.38079 | 5986 ft | 174 kts | 146° |
| 2026-04-30 17:48 | 25.40237 | 46.40099 | 5987 ft | 175 kts | 147° |
| 2026-04-30 17:49 | 25.36031 | 46.42796 | 5990 ft | 175 kts | 147° |
| 2026-04-30 17:50 | 25.31837 | 46.45454 | 5988 ft | 173 kts | 148° |
| 2026-04-30 17:51 | 25.28701 | 46.47446 | 5987 ft | 173 kts | 148° |
| 2026-04-30 17:52 | 25.26529 | 46.50441 | 5991 ft | 171 kts | 120° |
| 2026-04-30 17:53 | 25.22146 | 46.54672 | 5993 ft | 171 kts | 147° |
| 2026-04-30 17:54 | 25.18018 | 46.57307 | 6003 ft | 173 kts | 147° |
| 2026-04-30 17:55 | 25.13823 | 46.59971 | 5513 ft | 173 kts | 146° |
| 2026-04-30 17:56 | 25.09876 | 46.62473 | 4692 ft | 144 kts | 144° |
| 2026-04-30 17:57 | 25.07329 | 46.64090 | 4150 ft | 139 kts | 144° |
| 2026-04-30 17:58 | 25.04823 | 46.65680 | 3625 ft | 139 kts | 143° |
| 2026-04-30 17:59 | 25.01506 | 46.67782 | 2932 ft | 141 kts | 143° |
| 2026-04-30 18:00 | 24.98389 | 46.69746 | 2233 ft | 140 kts | 143° |
| 2026-04-30 18:00 | 24.96289 | 46.71083 | 2033 ft | 65 kts | 150° |
| 2026-04-30 18:01 | 24.95682 | 46.71420 | 2037 ft | 29 kts | 174° |
| 2026-04-30 18:02 | 24.95417 | 46.71241 | 2031 ft | 9 kts | 239° |
| 2026-04-30 18:02 | 24.95414 | 46.71236 | 2031 ft | 0 kts | 239° |
| 2026-04-30 18:03 | 24.95398 | 46.71206 | 2034 ft | 8 kts | 239° |
| 2026-04-30 18:04 | 24.95286 | 46.70990 | 2037 ft | 10 kts | 239° |
| 2026-04-30 18:05 | 24.95079 | 46.70937 | 2031 ft | 17 kts | 150° |
| 2026-04-30 18:06 | 24.94510 | 46.71298 | 2032 ft | 28 kts | 150° |
| 2026-04-30 18:07 | 24.94316 | 46.71559 | 2036 ft | 0 kts | 59° |
| 2026-04-30 18:08 | 24.94318 | 46.71563 | 2036 ft | 0 kts | 59° |